TAF and METAR

METAR for Yakutsk Airport

UEEE 230300Z 07002MPS CAVOK M28/M31 Q1013 R23L/490145 NOSIG RMK QFE751
Report created 23. feb 04:00
wind 4 knots from ENE (070°) Clear sky Temperature -28° with dewpoint at -31° (Humidity 75.27%) Pressure 1013 hPa 1 mm of dry snow is covering 51% - 100% of runway 23L and friction coefficient is 0.45

TAF for Yakutsk Airport

TAF UEEE 230200Z 2303/2409 36003MPS CAVOK
Report created 23. feb 03:00

between 23. feb 04:00 - 24. feb 10:00

wind 6 knots from N (360°) Clear sky
Yakutsk Airport in Russian Federation at 103m

Latest 5 airports